Wetterdaten: Samstag, 21.07.2012
Datum Zeit Temperatur Luftfeuchte Regen Wind Richtung Richtung Taupunkt Windchill Windben
21.07.2012 00:00 10,2 C 95 % 0,0 l/m 0,5 km/h (0 Bft) O-SO 112 9,4 C 10,0 C 0,0 km/h (0 Bft)
21.07.2012 00:05 10,2 C 95 % 0,0 l/m 0,6 km/h (0 Bft) NO 45 9,4 C 10,0 C 1,8 km/h (1 Bft)
21.07.2012 00:10 10,2 C 95 % 0,0 l/m 0,5 km/h (0 Bft) W-SW 247 9,4 C 10,0 C 0,0 km/h (0 Bft)
21.07.2012 00:15 10,1 C 95 % 0,0 l/m 0,3 km/h (0 Bft) N-NO 22 9,3 C 10,0 C 0,0 km/h (0 Bft)
21.07.2012 00:20 10,1 C 95 % 0,0 l/m 0,3 km/h (0 Bft) N-NW 337 9,3 C 10,0 C 2,9 km/h (1 Bft)
21.07.2012 00:25 10,1 C 95 % 0,0 l/m 0,5 km/h (0 Bft) N-NO 22 9,3 C 10,0 C 1,9 km/h (1 Bft)
21.07.2012 00:30 10,2 C 95 % 0,0 l/m 0,5 km/h (0 Bft) N 360 9,4 C 10,0 C 3,9 km/h (1 Bft)
21.07.2012 00:35 10,1 C 95 % 0,0 l/m 0,2 km/h (0 Bft) O-SO 112 9,3 C 10,0 C 0,0 km/h (0 Bft)
21.07.2012 00:40 10,1 C 95 % 0,0 l/m 0,3 km/h (0 Bft) O 90 9,3 C 10,0 C 2,7 km/h (1 Bft)
21.07.2012 00:45 10,1 C 95 % 0,0 l/m 0,3 km/h (0 Bft) N 360 9,3 C 10,0 C 1,6 km/h (1 Bft)
21.07.2012 00:50 10,1 C 95 % 0,0 l/m 0,5 km/h (0 Bft) O-NO 67 9,3 C 10,0 C 0,0 km/h (0 Bft)
21.07.2012 00:55 10,0 C 95 % 0,0 l/m 0,3 km/h (0 Bft) NO 45 9,2 C 10,0 C 0,0 km/h (0 Bft)
21.07.2012 01:00 10,0 C 95 % 0,0 l/m 0,2 km/h (0 Bft) W 270 9,2 C 10,0 C 0,0 km/h (0 Bft)
21.07.2012 01:05 10,0 C 95 % 0,0 l/m 0,0 km/h (0 Bft) N 360 9,2 C 10,0 C 0,0 km/h (0 Bft)
21.07.2012 01:10 10,0 C 95 % 0,0 l/m 0,0 km/h (0 Bft) N 360 9,2 C 10,0 C 0,0 km/h (0 Bft)
21.07.2012 01:15 10,0 C 95 % 0,0 l/m 0,2 km/h (0 Bft) W 270 9,2 C 10,0 C 0,0 km/h (0 Bft)
21.07.2012 01:20 10,0 C 95 % 0,0 l/m 0,3 km/h (0 Bft) N 360 9,2 C 10,0 C 0,0 km/h (0 Bft)
21.07.2012 01:25 10,0 C 95 % 0,0 l/m 0,2 km/h (0 Bft) O-SO 112 9,2 C 10,0 C 0,0 km/h (0 Bft)
21.07.2012 01:30 10,0 C 95 % 0,0 l/m 0,2 km/h (0 Bft) O-NO 67 9,2 C 10,0 C 0,0 km/h (0 Bft)
21.07.2012 01:35 10,0 C 95 % 0,0 l/m 0,0 km/h (0 Bft) N-NO 22 9,2 C 9,9 C 0,0 km/h (0 Bft)
21.07.2012 01:40 10,0 C 95 % 0,0 l/m 0,2 km/h (0 Bft) N 360 9,2 C 9,9 C 0,0 km/h (0 Bft)
21.07.2012 01:45 10,0 C 95 % 0,0 l/m 0,3 km/h (0 Bft) N 360 9,2 C 9,9 C 0,0 km/h (0 Bft)
21.07.2012 01:50 10,0 C 95 % 0,0 l/m 0,3 km/h (0 Bft) N-NW 337 9,2 C 9,9 C 0,0 km/h (0 Bft)
21.07.2012 01:55 10,0 C 95 % 0,0 l/m 0,2 km/h (0 Bft) N-NO 22 9,2 C 9,9 C 0,0 km/h (0 Bft)
21.07.2012 02:00 10,0 C 95 % 0,0 l/m 0,0 km/h (0 Bft) N-NO 22 9,2 C 9,9 C 0,0 km/h (0 Bft)
21.07.2012 02:05 9,9 C 96 % 0,0 l/m 0,0 km/h (0 Bft) N 360 9,3 C 9,9 C 0,0 km/h (0 Bft)
21.07.2012 02:10 9,9 C 96 % 0,0 l/m 0,0 km/h (0 Bft) NO 45 9,3 C 9,8 C 0,0 km/h (0 Bft)
21.07.2012 02:15 9,9 C 96 % 0,0 l/m 0,0 km/h (0 Bft) NO 45 9,3 C 9,8 C 0,0 km/h (0 Bft)
21.07.2012 02:20 9,9 C 96 % 0,0 l/m 0,0 km/h (0 Bft) NO 45 9,3 C 9,8 C 0,0 km/h (0 Bft)
21.07.2012 02:25 9,9 C 96 % 0,0 l/m 0,0 km/h (0 Bft) N-NO 22 9,3 C 9,8 C 0,0 km/h (0 Bft)
21.07.2012 02:30 9,9 C 96 % 0,0 l/m 0,2 km/h (0 Bft) N 360 9,3 C 9,8 C 1,9 km/h (1 Bft)
21.07.2012 02:35 9,9 C 96 % 0,0 l/m 0,5 km/h (0 Bft) N-NO 22 9,3 C 9,8 C 0,0 km/h (0 Bft)
21.07.2012 02:40 9,9 C 96 % 0,0 l/m 0,5 km/h (0 Bft) N 360 9,3 C 9,8 C 1,6 km/h (1 Bft)
21.07.2012 02:45 9,9 C 96 % 0,0 l/m 0,3 km/h (0 Bft) N 360 9,3 C 9,9 C 0,0 km/h (0 Bft)
21.07.2012 02:50 10,0 C 95 % 0,0 l/m 0,3 km/h (0 Bft) N-NO 22 9,2 C 9,9 C 0,0 km/h (0 Bft)
21.07.2012 02:55 10,0 C 95 % 0,0 l/m 0,0 km/h (0 Bft) N-NO 22 9,2 C 9,9 C 0,0 km/h (0 Bft)
21.07.2012 03:00 10,0 C 95 % 0,0 l/m 0,0 km/h (0 Bft) O 90 9,2 C 9,9 C 0,0 km/h (0 Bft)
21.07.2012 03:05 10,1 C 95 % 0,0 l/m 0,0 km/h (0 Bft) NO 45 9,3 C 10,0 C 0,0 km/h (0 Bft)
21.07.2012 03:10 10,0 C 95 % 0,0 l/m 0,0 km/h (0 Bft) NO 45 9,2 C 10,0 C 0,0 km/h (0 Bft)
21.07.2012 03:15 10,0 C 95 % 0,0 l/m 0,0 km/h (0 Bft) NO 45 9,2 C 10,0 C 0,0 km/h (0 Bft)
21.07.2012 03:20 10,0 C 95 % 0,0 l/m 0,0 km/h (0 Bft) O-SO 112 9,2 C 9,9 C 0,0 km/h (0 Bft)
21.07.2012 03:25 10,0 C 96 % 0,0 l/m 0,0 km/h (0 Bft) O-NO 67 9,4 C 9,9 C 0,0 km/h (0 Bft)
21.07.2012 03:30 10,0 C 96 % 0,7 l/m 0,0 km/h (0 Bft) O 90 9,4 C 9,9 C 0,0 km/h (0 Bft)
21.07.2012 03:35 10,1 C 95 % 0,0 l/m 0,5 km/h (0 Bft) N 360 9,3 C 9,9 C 0,0 km/h (0 Bft)
21.07.2012 03:40 10,1 C 96 % 0,0 l/m 0,6 km/h (0 Bft) NO 45 9,5 C 9,9 C 5,1 km/h (1 Bft)
21.07.2012 03:45 10,0 C 96 % 0,0 l/m 0,2 km/h (0 Bft) N 360 9,4 C 9,9 C 0,0 km/h (0 Bft)
21.07.2012 03:50 10,0 C 96 % 0,0 l/m 0,0 km/h (0 Bft) N-NO 22 9,4 C 9,9 C 0,0 km/h (0 Bft)
21.07.2012 03:55 10,0 C 96 % 0,0 l/m 0,5 km/h (0 Bft) NO 45 9,4 C 9,9 C 0,0 km/h (0 Bft)
21.07.2012 04:00 10,0 C 95 % 0,0 l/m 0,5 km/h (0 Bft) O 90 9,2 C 9,9 C 0,0 km/h (0 Bft)
21.07.2012 04:05 10,0 C 96 % 0,0 l/m 0,2 km/h (0 Bft) N-NO 22 9,4 C 9,9 C 2,3 km/h (1 Bft)
21.07.2012 04:10 10,0 C 96 % 0,0 l/m 0,2 km/h (0 Bft) NO 45 9,4 C 9,9 C 0,0 km/h (0 Bft)
21.07.2012 04:15 10,0 C 96 % 0,0 l/m 0,0 km/h (0 Bft) N 360 9,4 C 9,9 C 0,0 km/h (0 Bft)
21.07.2012 04:20 10,0 C 96 % 0,0 l/m 0,0 km/h (0 Bft) N-NO 22 9,4 C 9,9 C 0,0 km/h (0 Bft)
21.07.2012 04:25 10,0 C 96 % 0,0 l/m 0,0 km/h (0 Bft) N 360 9,4 C 9,9 C 0,0 km/h (0 Bft)
21.07.2012 04:30 10,0 C 96 % 0,0 l/m 0,0 km/h (0 Bft) S-SO 157 9,4 C 9,9 C 0,0 km/h (0 Bft)
21.07.2012 04:35 10,1 C 96 % 0,0 l/m 0,0 km/h (0 Bft) O-NO 67 9,5 C 9,9 C 0,0 km/h (0 Bft)
21.07.2012 04:40 10,0 C 95 % 0,0 l/m 0,0 km/h (0 Bft) O-SO 112 9,2 C 9,9 C 0,0 km/h (0 Bft)
21.07.2012 04:45 10,0 C 96 % 0,0 l/m 0,0 km/h (0 Bft) NO 45 9,4 C 9,8 C 0,0 km/h (0 Bft)
21.07.2012 04:50 10,0 C 96 % 0,0 l/m 0,0 km/h (0 Bft) N 360 9,4 C 9,8 C 0,0 km/h (0 Bft)
21.07.2012 04:55 10,0 C 96 % 0,0 l/m 0,0 km/h (0 Bft) N-NO 22 9,4 C 9,8 C 0,0 km/h (0 Bft)
21.07.2012 05:00 10,0 C 96 % 0,0 l/m 0,0 km/h (0 Bft) N-NO 22 9,4 C 9,8 C 0,0 km/h (0 Bft)
21.07.2012 05:05 10,0 C 96 % 0,0 l/m 0,0 km/h (0 Bft) N-NO 22 9,4 C 9,9 C 0,0 km/h (0 Bft)
21.07.2012 05:10 10,0 C 96 % 0,0 l/m 0,2 km/h (0 Bft) N-NO 22 9,4 C 9,9 C 0,0 km/h (0 Bft)
21.07.2012 05:15 10,0 C 96 % 0,0 l/m 0,2 km/h (0 Bft) N-NO 22 9,4 C 9,9 C 0,0 km/h (0 Bft)
21.07.2012 05:20 10,0 C 96 % 0,0 l/m 0,2 km/h (0 Bft) NO 45 9,4 C 9,8 C 0,0 km/h (0 Bft)
21.07.2012 05:25 10,0 C 96 % 0,0 l/m 0,0 km/h (0 Bft) NO 45 9,4 C 9,8 C 0,0 km/h (0 Bft)
21.07.2012 05:30 10,0 C 96 % 0,0 l/m 0,0 km/h (0 Bft) N-NO 22 9,4 C 9,9 C 0,0 km/h (0 Bft)
21.07.2012 05:35 10,1 C 96 % 0,0 l/m 0,0 km/h (0 Bft) NO 45 9,5 C 9,9 C 0,0 km/h (0 Bft)
21.07.2012 05:40 10,1 C 96 % 0,0 l/m 0,0 km/h (0 Bft) N 360 9,5 C 9,9 C 0,0 km/h (0 Bft)
21.07.2012 05:45 10,0 C 96 % 0,0 l/m 0,2 km/h (0 Bft) N-NO 22 9,4 C 9,9 C 0,0 km/h (0 Bft)
21.07.2012 05:50 10,0 C 96 % 0,0 l/m 0,2 km/h (0 Bft) N-NO 22 9,4 C 9,9 C 0,0 km/h (0 Bft)
21.07.2012 05:55 10,0 C 96 % 0,0 l/m 0,0 km/h (0 Bft) N-NO 22 9,4 C 9,9 C 0,0 km/h (0 Bft)
21.07.2012 06:00 10,1 C 96 % 0,0 l/m 0,0 km/h (0 Bft) N-NO 22 9,5 C 9,9 C 0,0 km/h (0 Bft)
21.07.2012 06:05 10,2 C 96 % 0,0 l/m 0,0 km/h (0 Bft) N-NO 22 9,6 C 10,0 C 0,0 km/h (0 Bft)
21.07.2012 06:10 10,2 C 96 % 0,0 l/m 0,2 km/h (0 Bft) N-NO 22 9,6 C 10,0 C 0,0 km/h (0 Bft)
21.07.2012 06:15 10,3 C 96 % 0,0 l/m 0,2 km/h (0 Bft) N 360 9,7 C 10,2 C 0,0 km/h (0 Bft)
21.07.2012 06:20 10,4 C 96 % 0,0 l/m 0,0 km/h (0 Bft) N 360 9,8 C 10,2 C 0,0 km/h (0 Bft)
21.07.2012 06:25 10,4 C 96 % 0,0 l/m 0,0 km/h (0 Bft) N-NO 22 9,8 C 10,2 C 0,0 km/h (0 Bft)
21.07.2012 06:30 10,4 C 96 % 0,0 l/m 0,0 km/h (0 Bft) N-NO 22 9,8 C 10,3 C 0,0 km/h (0 Bft)
21.07.2012 06:35 10,5 C 96 % 0,0 l/m 0,0 km/h (0 Bft) N 360 9,9 C 10,4 C 0,0 km/h (0 Bft)
21.07.2012 06:40 10,6 C 96 % 0,0 l/m 0,0 km/h (0 Bft) N-NW 337 10,0 C 10,4 C 0,0 km/h (0 Bft)
21.07.2012 06:45 10,7 C 96 % 0,0 l/m 0,0 km/h (0 Bft) N 360 10,1 C 10,4 C 0,0 km/h (0 Bft)
21.07.2012 06:50 10,9 C 96 % 0,0 l/m 0,0 km/h (0 Bft) N 360 10,3 C 10,6 C 0,0 km/h (0 Bft)
21.07.2012 06:55 10,7 C 96 % 0,0 l/m 0,0 km/h (0 Bft) N-NW 337 10,1 C 10,7 C 0,0 km/h (0 Bft)
21.07.2012 07:00 10,7 C 96 % 0,0 l/m 0,0 km/h (0 Bft) S-SW 202 10,1 C 10,7 C 0,0 km/h (0 Bft)
21.07.2012 07:05 10,7 C 96 % 0,0 l/m 0,0 km/h (0 Bft) N-NO 22 10,1 C 10,7 C 0,0 km/h (0 Bft)
21.07.2012 07:10 10,8 C 96 % 0,0 l/m 0,0 km/h (0 Bft) N 360 10,2 C 10,8 C 0,0 km/h (0 Bft)
21.07.2012 07:15 10,7 C 96 % 0,0 l/m 0,0 km/h (0 Bft) NO 45 10,1 C 10,8 C 0,0 km/h (0 Bft)
21.07.2012 07:20 10,7 C 96 % 0,0 l/m 0,0 km/h (0 Bft) N 360 10,1 C 10,8 C 0,0 km/h (0 Bft)
21.07.2012 07:25 10,9 C 96 % 0,0 l/m 0,0 km/h (0 Bft) NO 45 10,3 C 10,9 C 0,0 km/h (0 Bft)
21.07.2012 07:30 11,1 C 96 % 0,0 l/m 0,0 km/h (0 Bft) NO 45 10,5 C 11,1 C 0,0 km/h (0 Bft)
21.07.2012 07:35 11,3 C 96 % 0,0 l/m 0,0 km/h (0 Bft) S-SW 202 10,7 C 11,4 C 0,0 km/h (0 Bft)
21.07.2012 07:40 11,4 C 96 % 0,0 l/m 0,0 km/h (0 Bft) S 180 10,8 C 11,6 C 0,0 km/h (0 Bft)
21.07.2012 07:45 11,4 C 96 % 0,0 l/m 0,0 km/h (0 Bft) W-SW 247 10,8 C 11,8 C 0,0 km/h (0 Bft)
21.07.2012 07:50 11,5 C 96 % 0,0 l/m 0,0 km/h (0 Bft) W 270 10,9 C 12,1 C 0,0 km/h (0 Bft)
21.07.2012 07:55 11,4 C 95 % 0,0 l/m 0,0 km/h (0 Bft) SO 135 10,6 C 12,2 C 0,0 km/h (0 Bft)
21.07.2012 08:00 11,5 C 96 % 0,0 l/m 0,0 km/h (0 Bft) S 180 10,9 C 12,2 C 0,0 km/h (0 Bft)
21.07.2012 08:05 11,3 C 95 % 0,0 l/m 0,5 km/h (0 Bft) S-SO 157 10,5 C 12,2 C 2,1 km/h (1 Bft)
21.07.2012 08:10 11,4 C 95 % 0,0 l/m 0,8 km/h (0 Bft) SO 135 10,6 C 12,1 C 2,6 km/h (1 Bft)
21.07.2012 08:15 11,9 C 95 % 0,0 l/m 0,8 km/h (0 Bft) SO 135 11,1 C 12,3 C 0,0 km/h (0 Bft)
21.07.2012 08:20 12,1 C 95 % 0,0 l/m 1,1 km/h (1 Bft) NO 45 11,3 C 12,7 C 0,0 km/h (0 Bft)
21.07.2012 08:25 11,9 C 95 % 0,0 l/m 0,8 km/h (0 Bft) NO 45 11,1 C 13,0 C 0,0 km/h (0 Bft)
21.07.2012 08:30 11,9 C 95 % 0,0 l/m 0,5 km/h (0 Bft) N 360 11,1 C 13,0 C 0,0 km/h (0 Bft)
21.07.2012 08:35 11,9 C 95 % 0,0 l/m 0,3 km/h (0 Bft) N 360 11,1 C 13,3 C 2,6 km/h (1 Bft)
21.07.2012 08:40 12,1 C 95 % 0,0 l/m 0,3 km/h (0 Bft) W-NW 292 11,3 C 13,3 C 0,0 km/h (0 Bft)
21.07.2012 08:45 12,1 C 95 % 0,0 l/m 0,6 km/h (0 Bft) N-NW 337 11,3 C 13,5 C 0,0 km/h (0 Bft)
21.07.2012 08:50 12,3 C 95 % 0,0 l/m 0,6 km/h (0 Bft) O-SO 112 11,5 C 13,7 C 2,1 km/h (1 Bft)
21.07.2012 08:55 12,4 C 95 % 0,0 l/m 0,5 km/h (0 Bft) SO 135 11,6 C 13,8 C 0,0 km/h (0 Bft)
21.07.2012 09:00 12,5 C 95 % 0,0 l/m 0,8 km/h (0 Bft) S-SO 157 11,7 C 14,0 C 0,0 km/h (0 Bft)
21.07.2012 09:05 12,7 C 95 % 0,0 l/m 0,5 km/h (0 Bft) O 90 11,9 C 14,4 C 0,0 km/h (0 Bft)
21.07.2012 09:10 12,7 C 94 % 0,0 l/m 0,2 km/h (0 Bft) O-SO 112 11,8 C 14,7 C 2,3 km/h (1 Bft)
21.07.2012 09:15 12,7 C 94 % 0,0 l/m 0,5 km/h (0 Bft) S-SW 202 11,8 C 14,8 C 0,0 km/h (0 Bft)
21.07.2012 09:20 12,7 C 93 % 0,0 l/m 0,5 km/h (0 Bft) W-NW 292 11,6 C 14,9 C 2,9 km/h (1 Bft)
21.07.2012 09:25 12,5 C 92 % 0,0 l/m 1,1 km/h (1 Bft) N 360 11,2 C 15,0 C 2,4 km/h (1 Bft)
21.07.2012 09:30 12,5 C 91 % 0,0 l/m 1,6 km/h (1 Bft) N-NW 337 11,1 C 14,9 C 0,0 km/h (0 Bft)
21.07.2012 09:35 12,5 C 89 % 0,0 l/m 0,6 km/h (0 Bft) W-NW 292 10,8 C 14,9 C 0,0 km/h (0 Bft)
21.07.2012 09:40 12,5 C 89 % 0,0 l/m 0,2 km/h (0 Bft) N-NW 337 11,0 C 15,0 C 1,8 km/h (1 Bft)
21.07.2012 09:45 12,5 C 89 % 0,0 l/m 0,2 km/h (0 Bft) S-SW 202 11,2 C 15,3 C 0,0 km/h (0 Bft)
21.07.2012 09:50 12,5 C 89 % 0,0 l/m 0,5 km/h (0 Bft) N-NW 337 11,1 C 15,3 C 0,0 km/h (0 Bft)
21.07.2012 09:55 12,5 C 89 % 0,0 l/m 0,3 km/h (0 Bft) O-NO 67 11,0 C 15,3 C 0,0 km/h (0 Bft)
21.07.2012 10:00 12,5 C 89 % 0,0 l/m 0,0 km/h (0 Bft) NO 45 10,9 C 15,3 C 0,0 km/h (0 Bft)
21.07.2012 10:05 12,5 C 90 % 0,0 l/m 0,5 km/h (0 Bft) S-SO 157 11,1 C 15,2 C 2,3 km/h (1 Bft)
21.07.2012 10:10 12,9 C 91 % 0,0 l/m 1,0 km/h (0 Bft) S 180 11,5 C 15,0 C 3,7 km/h (1 Bft)
21.07.2012 10:15 13,3 C 89 % 0,0 l/m 1,4 km/h (1 Bft) S-SO 157 11,5 C 15,0 C 3,4 km/h (1 Bft)
21.07.2012 10:20 13,1 C 89 % 0,0 l/m 1,8 km/h (1 Bft) S 180 11,3 C 15,0 C 4,2 km/h (1 Bft)
21.07.2012 10:25 13,2 C 88 % 0,0 l/m 2,3 km/h (1 Bft) SW 225 11,3 C 15,0 C 3,4 km/h (1 Bft)
21.07.2012 10:30 13,2 C 88 % 0,0 l/m 2,1 km/h (1 Bft) S 180 11,3 C 15,0 C 2,3 km/h (1 Bft)
21.07.2012 10:35 12,9 C 89 % 0,0 l/m 1,3 km/h (1 Bft) SO 135 11,1 C 14,9 C 1,8 km/h (1 Bft)
21.07.2012 10:40 12,9 C 89 % 0,0 l/m 0,8 km/h (0 Bft) O 90 11,1 C 14,7 C 0,0 km/h (0 Bft)
21.07.2012 10:45 13,1 C 89 % 0,0 l/m 0,6 km/h (0 Bft) W-SW 247 11,3 C 14,8 C 0,0 km/h (0 Bft)
21.07.2012 10:50 12,9 C 89 % 0,0 l/m 0,0 km/h (0 Bft) S-SW 202 11,1 C 14,8 C 0,0 km/h (0 Bft)
21.07.2012 10:55 13,0 C 89 % 0,0 l/m 0,5 km/h (0 Bft) N-NO 22 11,2 C 14,7 C 2,1 km/h (1 Bft)
21.07.2012 11:00 13,0 C 89 % 0,0 l/m 0,8 km/h (0 Bft) SO 135 11,2 C 14,5 C 1,6 km/h (1 Bft)
21.07.2012 11:05 13,1 C 89 % 0,0 l/m 0,5 km/h (0 Bft) SO 135 11,3 C 14,6 C 0,0 km/h (0 Bft)
21.07.2012 11:10 13,0 C 89 % 0,0 l/m 0,2 km/h (0 Bft) N 360 11,2 C 14,7 C 0,0 km/h (0 Bft)
21.07.2012 11:15 13,2 C 89 % 0,0 l/m 0,2 km/h (0 Bft) O-NO 67 11,4 C 15,0 C 0,0 km/h (0 Bft)
21.07.2012 11:20 13,3 C 89 % 0,0 l/m 0,0 km/h (0 Bft) N 360 11,5 C 15,1 C 0,0 km/h (0 Bft)
21.07.2012 11:25 13,3 C 89 % 0,0 l/m 0,5 km/h (0 Bft) W-NW 292 11,5 C 15,0 C 3,9 km/h (1 Bft)
21.07.2012 11:30 13,2 C 87 % 0,0 l/m 1,3 km/h (1 Bft) W-NW 292 11,1 C 15,0 C 3,2 km/h (1 Bft)
21.07.2012 11:35 13,5 C 88 % 0,0 l/m 1,6 km/h (1 Bft) N-NO 22 11,6 C 14,9 C 0,0 km/h (0 Bft)
21.07.2012 11:40 13,3 C 87 % 0,0 l/m 1,1 km/h (1 Bft) O-NO 67 11,2 C 15,0 C 0,0 km/h (0 Bft)
21.07.2012 11:45 13,3 C 88 % 0,0 l/m 0,5 km/h (0 Bft) NW 315 11,4 C 14,9 C 0,0 km/h (0 Bft)
21.07.2012 11:50 12,9 C 88 % 0,0 l/m 0,8 km/h (0 Bft) W-NW 292 11,0 C 14,6 C 2,6 km/h (1 Bft)
21.07.2012 11:55 12,4 C 88 % 0,0 l/m 1,8 km/h (1 Bft) O 90 10,5 C 13,9 C 1,8 km/h (1 Bft)
21.07.2012 12:00 12,2 C 88 % 0,0 l/m 2,1 km/h (1 Bft) N-NO 22 10,3 C 13,2 C 6,6 km/h (2 Bft)
21.07.2012 12:05 11,8 C 90 % 0,7 l/m 1,6 km/h (1 Bft) NW 315 10,2 C 12,2 C 2,1 km/h (1 Bft)
21.07.2012 12:10 11,5 C 91 % 0,7 l/m 1,8 km/h (1 Bft) W-SW 247 10,1 C 11,8 C 1,8 km/h (1 Bft)
21.07.2012 12:15 11,4 C 92 % 1,4 l/m 2,3 km/h (1 Bft) NW 315 10,1 C 11,5 C 3,2 km/h (1 Bft)
21.07.2012 12:20 11,4 C 92 % 0,0 l/m 2,4 km/h (1 Bft) W-SW 247 10,1 C 11,4 C 1,9 km/h (1 Bft)
21.07.2012 12:25 11,4 C 92 % 1,4 l/m 1,6 km/h (1 Bft) N-NO 22 10,1 C 11,3 C 1,6 km/h (1 Bft)
21.07.2012 12:30 11,4 C 92 % 0,7 l/m 0,8 km/h (0 Bft) S-SW 202 10,1 C 11,4 C 2,3 km/h (1 Bft)
21.07.2012 12:35 11,4 C 93 % 1,4 l/m 1,0 km/h (0 Bft) W 270 10,3 C 11,5 C 2,1 km/h (1 Bft)
21.07.2012 12:40 11,5 C 93 % 0,0 l/m 1,3 km/h (1 Bft) W 270 10,4 C 11,6 C 1,9 km/h (1 Bft)
21.07.2012 12:45 11,8 C 93 % 0,7 l/m 1,3 km/h (1 Bft) W-SW 247 10,7 C 11,7 C 2,3 km/h (1 Bft)
21.07.2012 12:50 12,0 C 93 % 0,0 l/m 1,0 km/h (0 Bft) SO 135 10,9 C 11,9 C 1,6 km/h (1 Bft)
21.07.2012 12:55 12,3 C 93 % 0,7 l/m 0,5 km/h (0 Bft) S-SO 157 11,2 C 12,3 C 0,0 km/h (0 Bft)
21.07.2012 13:00 12,3 C 93 % 0,0 l/m 0,5 km/h (0 Bft) SO 135 11,2 C 12,4 C 0,0 km/h (0 Bft)
21.07.2012 13:05 12,6 C 93 % 0,0 l/m 0,2 km/h (0 Bft) S 180 11,5 C 12,9 C 0,0 km/h (0 Bft)
21.07.2012 13:10 13,1 C 92 % 0,7 l/m 0,3 km/h (0 Bft) SO 135 11,8 C 13,2 C 1,9 km/h (1 Bft)
21.07.2012 13:15 13,4 C 92 % 0,0 l/m 1,3 km/h (1 Bft) W-SW 247 12,1 C 13,6 C 2,9 km/h (1 Bft)
21.07.2012 13:20 13,8 C 92 % 0,0 l/m 1,6 km/h (1 Bft) O-SO 112 12,5 C 13,8 C 3,7 km/h (1 Bft)
21.07.2012 13:25 13,6 C 91 % 0,0 l/m 1,6 km/h (1 Bft) S-SO 157 12,2 C 14,5 C 3,5 km/h (1 Bft)
21.07.2012 13:30 13,7 C 91 % 0,0 l/m 1,4 km/h (1 Bft) SO 135 12,3 C 14,7 C 0,0 km/h (0 Bft)
21.07.2012 13:35 14,2 C 91 % 0,0 l/m 1,0 km/h (0 Bft) S 180 12,8 C 15,5 C 2,6 km/h (1 Bft)
21.07.2012 13:40 14,6 C 90 % 0,0 l/m 1,1 km/h (1 Bft) S 180 13,0 C 15,7 C 3,2 km/h (1 Bft)
21.07.2012 13:45 15,1 C 89 % 0,0 l/m 1,9 km/h (1 Bft) O-SO 112 13,3 C 16,1 C 3,1 km/h (1 Bft)
21.07.2012 13:50 15,6 C 88 % 0,0 l/m 2,1 km/h (1 Bft) S-SW 202 13,6 C 16,9 C 1,9 km/h (1 Bft)
21.07.2012 13:55 14,9 C 87 % 0,0 l/m 1,8 km/h (1 Bft) S-SW 202 12,8 C 18,3 C 4,3 km/h (1 Bft)
21.07.2012 14:00 14,9 C 88 % 0,0 l/m 1,6 km/h (1 Bft) S-SO 157 12,9 C 18,3 C 4,0 km/h (1 Bft)
21.07.2012 14:05 14,9 C 88 % 0,0 l/m 2,7 km/h (1 Bft) O-SO 112 12,9 C 17,7 C 3,7 km/h (1 Bft)
21.07.2012 14:10 15,1 C 88 % 0,0 l/m 3,2 km/h (1 Bft) O 90 13,1 C 17,6 C 2,4 km/h (1 Bft)
21.07.2012 14:15 15,3 C 87 % 0,0 l/m 1,9 km/h (1 Bft) O-SO 112 13,1 C 18,5 C 3,2 km/h (1 Bft)
21.07.2012 14:20 15,6 C 85 % 0,0 l/m 1,6 km/h (1 Bft) O-NO 67 13,1 C 19,1 C 2,9 km/h (1 Bft)
21.07.2012 14:25 15,5 C 86 % 0,0 l/m 2,9 km/h (1 Bft) O-SO 112 13,2 C 19,5 C 6,6 km/h (2 Bft)
21.07.2012 14:30 15,3 C 86 % 0,0 l/m 3,1 km/h (1 Bft) O-SO 112 13,0 C 18,8 C 7,9 km/h (2 Bft)
21.07.2012 14:35 15,2 C 86 % 0,0 l/m 2,4 km/h (1 Bft) S 180 12,9 C 18,8 C 4,8 km/h (1 Bft)
21.07.2012 14:40 15,6 C 86 % 0,0 l/m 2,6 km/h (1 Bft) S 180 13,3 C 18,7 C 5,8 km/h (2 Bft)
21.07.2012 14:45 16,5 C 84 % 0,0 l/m 4,0 km/h (1 Bft) SO 135 13,8 C 19,3 C 6,4 km/h (2 Bft)
21.07.2012 14:50 16,0 C 83 % 0,0 l/m 3,1 km/h (1 Bft) S 180 13,1 C 19,7 C 8,5 km/h (2 Bft)
21.07.2012 14:55 16,6 C 80 % 0,0 l/m 2,4 km/h (1 Bft) S 180 13,1 C 20,8 C 1,6 km/h (1 Bft)
21.07.2012 15:00 16,6 C 83 % 0,0 l/m 2,6 km/h (1 Bft) SW 225 13,7 C 20,7 C 4,8 km/h (1 Bft)
21.07.2012 15:05 16,4 C 83 % 0,0 l/m 3,4 km/h (1 Bft) S 180 13,5 C 20,2 C 3,2 km/h (1 Bft)
21.07.2012 15:10 17,7 C 79 % 0,0 l/m 3,5 km/h (1 Bft) S-SO 157 14,0 C 20,5 C 5,0 km/h (1 Bft)
21.07.2012 15:15 18,0 C 79 % 0,0 l/m 3,5 km/h (1 Bft) SO 135 14,3 C 21,5 C 5,5 km/h (1 Bft)
21.07.2012 15:20 18,3 C 75 % 0,0 l/m 4,0 km/h (1 Bft) SW 225 13,8 C 21,9 C 2,9 km/h (1 Bft)
21.07.2012 15:25 18,6 C 79 % 0,0 l/m 3,9 km/h (1 Bft) NW 315 14,9 C 22,3 C 2,6 km/h (1 Bft)
21.07.2012 15:30 19,1 C 77 % 0,0 l/m 4,0 km/h (1 Bft) O-SO 112 15,0 C 22,5 C 9,3 km/h (2 Bft)
21.07.2012 15:35 18,6 C 79 % 0,0 l/m 3,7 km/h (1 Bft) O-SO 112 14,9 C 22,5 C 8,0 km/h (2 Bft)
21.07.2012 15:40 18,5 C 72 % 0,0 l/m 3,1 km/h (1 Bft) S 180 13,4 C 22,3 C 3,7 km/h (1 Bft)
21.07.2012 15:45 18,3 C 70 % 0,0 l/m 2,9 km/h (1 Bft) N-NO 22 12,7 C 22,9 C 3,9 km/h (1 Bft)
21.07.2012 15:50 18,0 C 74 % 0,0 l/m 2,6 km/h (1 Bft) O-SO 112 13,3 C 23,1 C 5,1 km/h (1 Bft)
21.07.2012 15:55 18,6 C 73 % 0,0 l/m 3,7 km/h (1 Bft) SO 135 13,7 C 22,7 C 2,3 km/h (1 Bft)
21.07.2012 16:00 18,3 C 77 % 0,0 l/m 3,5 km/h (1 Bft) O-SO 112 14,2 C 22,7 C 5,8 km/h (2 Bft)
21.07.2012 16:05 18,9 C 76 % 0,0 l/m 2,3 km/h (1 Bft) O-SO 112 14,6 C 23,3 C 2,3 km/h (1 Bft)
21.07.2012 16:10 18,5 C 79 % 0,0 l/m 2,7 km/h (1 Bft) S-SO 157 14,8 C 23,1 C 4,0 km/h (1 Bft)
21.07.2012 16:15 17,9 C 77 % 0,0 l/m 4,0 km/h (1 Bft) S-SO 157 13,8 C 21,4 C 6,3 km/h (2 Bft)
21.07.2012 16:20 17,7 C 81 % 0,0 l/m 4,2 km/h (1 Bft) SO 135 14,4 C 20,2 C 9,8 km/h (2 Bft)
21.07.2012 16:25 17,7 C 80 % 0,0 l/m 2,9 km/h (1 Bft) NO 45 14,2 C 19,6 C 3,1 km/h (1 Bft)
21.07.2012 16:30 17,3 C 78 % 0,0 l/m 2,9 km/h (1 Bft) SO 135 13,4 C 19,4 C 5,1 km/h (1 Bft)
21.07.2012 16:35 16,8 C 75 % 0,0 l/m 4,7 km/h (1 Bft) S-SO 157 12,3 C 18,5 C 7,7 km/h (2 Bft)
21.07.2012 16:40 15,8 C 75 % 0,0 l/m 6,0 km/h (2 Bft) S-SW 202 11,4 C 17,8 C 10,9 km/h (2 Bft)
21.07.2012 16:45 14,7 C 79 % 0,0 l/m 7,1 km/h (2 Bft) S-SW 202 11,1 C 15,7 C 14,3 km/h (3 Bft)
21.07.2012 16:50 13,9 C 77 % 0,0 l/m 6,9 km/h (2 Bft) S-SO 157 9,9 C 14,8 C 7,1 km/h (2 Bft)
21.07.2012 16:55 13,1 C 81 % 0,0 l/m 6,9 km/h (2 Bft) S-SO 157 9,9 C 13,1 C 4,7 km/h (1 Bft)
21.07.2012 17:00 12,8 C 84 % 0,0 l/m 6,1 km/h (2 Bft) O 90 10,2 C 12,6 C 5,0 km/h (1 Bft)
21.07.2012 17:05 12,1 C 85 % 0,0 l/m 5,5 km/h (1 Bft) O-SO 112 9,7 C 11,6 C 8,9 km/h (2 Bft)
21.07.2012 17:10 11,8 C 87 % 0,0 l/m 5,5 km/h (1 Bft) O 90 9,7 C 11,2 C 8,0 km/h (2 Bft)
21.07.2012 17:15 11,5 C 88 % 0,7 l/m 4,3 km/h (1 Bft) NO 45 9,6 C 11,1 C 3,5 km/h (1 Bft)
21.07.2012 17:20 11,5 C 89 % 0,7 l/m 5,1 km/h (1 Bft) S-SO 157 9,8 C 10,9 C 6,6 km/h (2 Bft)
21.07.2012 17:25 11,4 C 91 % 0,7 l/m 4,7 km/h (1 Bft) O-SO 112 10,0 C 10,9 C 4,3 km/h (1 Bft)
21.07.2012 17:30 11,4 C 91 % 0,0 l/m 4,2 km/h (1 Bft) O 90 10,0 C 11,1 C 6,9 km/h (2 Bft)
21.07.2012 17:35 11,5 C 92 % 0,7 l/m 4,7 km/h (1 Bft) O-SO 112 10,2 C 11,1 C 5,0 km/h (1 Bft)
21.07.2012 17:40 11,6 C 92 % 0,7 l/m 4,2 km/h (1 Bft) SO 135 10,3 C 11,1 C 4,8 km/h (1 Bft)
21.07.2012 17:45 11,6 C 92 % 0,0 l/m 2,3 km/h (1 Bft) O-SO 112 10,3 C 11,4 C 2,7 km/h (1 Bft)
21.07.2012 17:50 11,6 C 92 % 0,0 l/m 1,4 km/h (1 Bft) O 90 10,3 C 11,4 C 2,4 km/h (1 Bft)
21.07.2012 17:55 11,4 C 92 % 0,0 l/m 1,6 km/h (1 Bft) O-NO 67 10,1 C 11,4 C 2,6 km/h (1 Bft)
21.07.2012 18:00 11,4 C 92 % 0,0 l/m 1,6 km/h (1 Bft) O-NO 67 10,1 C 11,5 C 0,0 km/h (0 Bft)
21.07.2012 18:05 11,5 C 93 % 0,0 l/m 1,3 km/h (1 Bft) O-SO 112 10,4 C 11,6 C 2,9 km/h (1 Bft)
21.07.2012 18:10 11,7 C 93 % 0,0 l/m 1,0 km/h (0 Bft) NO 45 10,6 C 11,6 C 0,0 km/h (0 Bft)
21.07.2012 18:15 12,0 C 93 % 0,0 l/m 1,8 km/h (1 Bft) O-SO 112 10,9 C 11,9 C 2,7 km/h (1 Bft)
21.07.2012 18:20 12,1 C 93 % 0,0 l/m 2,3 km/h (1 Bft) SO 135 11,0 C 12,1 C 3,9 km/h (1 Bft)
21.07.2012 18:25 12,2 C 93 % 0,0 l/m 3,2 km/h (1 Bft) O-SO 112 11,1 C 12,3 C 5,5 km/h (1 Bft)
21.07.2012 18:30 12,2 C 93 % 0,0 l/m 3,1 km/h (1 Bft) O-SO 112 11,1 C 12,6 C 4,3 km/h (1 Bft)
21.07.2012 18:35 12,8 C 93 % 0,0 l/m 2,6 km/h (1 Bft) S 180 11,7 C 13,3 C 1,8 km/h (1 Bft)
21.07.2012 18:40 13,3 C 92 % 0,0 l/m 2,6 km/h (1 Bft) S-SO 157 12,0 C 14,8 C 4,0 km/h (1 Bft)
21.07.2012 18:45 13,7 C 92 % 0,0 l/m 3,1 km/h (1 Bft) SO 135 12,4 C 16,3 C 4,5 km/h (1 Bft)
21.07.2012 18:50 13,4 C 91 % 0,0 l/m 2,9 km/h (1 Bft) S 180 12,0 C 17,3 C 3,5 km/h (1 Bft)
21.07.2012 18:55 13,1 C 91 % 0,0 l/m 2,4 km/h (1 Bft) O-SO 112 11,7 C 18,1 C 2,1 km/h (1 Bft)
21.07.2012 19:00 13,0 C 91 % 0,0 l/m 1,6 km/h (1 Bft) NO 45 11,6 C 17,5 C 1,9 km/h (1 Bft)
21.07.2012 19:05 12,5 C 92 % 0,0 l/m 0,6 km/h (0 Bft) O-NO 67 11,2 C 16,0 C 0,0 km/h (0 Bft)
21.07.2012 19:10 12,2 C 92 % 0,0 l/m 0,3 km/h (0 Bft) NO 45 10,9 C 15,3 C 0,0 km/h (0 Bft)
21.07.2012 19:15 11,7 C 92 % 0,0 l/m 0,2 km/h (0 Bft) NO 45 10,4 C 14,1 C 0,0 km/h (0 Bft)
21.07.2012 19:20 11,6 C 92 % 0,0 l/m 0,2 km/h (0 Bft) NO 45 10,3 C 13,5 C 0,0 km/h (0 Bft)
21.07.2012 19:25 11,3 C 93 % 0,0 l/m 0,0 km/h (0 Bft) N-NO 22 10,2 C 12,7 C 0,0 km/h (0 Bft)
21.07.2012 19:30 11,2 C 93 % 0,0 l/m 0,0 km/h (0 Bft) N 360 10,1 C 12,3 C 0,0 km/h (0 Bft)
21.07.2012 19:35 11,1 C 93 % 0,0 l/m 0,0 km/h (0 Bft) NO 45 10,0 C 12,0 C 0,0 km/h (0 Bft)
21.07.2012 19:40 11,1 C 93 % 0,0 l/m 0,0 km/h (0 Bft) N 360 10,0 C 11,8 C 0,0 km/h (0 Bft)
21.07.2012 19:45 11,2 C 93 % 0,0 l/m 0,0 km/h (0 Bft) N-NO 22 10,1 C 11,6 C 1,8 km/h (1 Bft)
21.07.2012 19:50 11,2 C 93 % 0,0 l/m 0,2 km/h (0 Bft) N 360 10,1 C 11,5 C 0,0 km/h (0 Bft)
21.07.2012 19:55 11,3 C 94 % 0,0 l/m 0,2 km/h (0 Bft) N-NO 22 10,4 C 11,5 C 0,0 km/h (0 Bft)
21.07.2012 20:00 11,3 C 94 % 0,0 l/m 0,0 km/h (0 Bft) N 360 10,4 C 11,5 C 2,1 km/h (1 Bft)
21.07.2012 20:05 11,3 C 94 % 0,0 l/m 0,2 km/h (0 Bft) N-NO 22 10,4 C 11,5 C 0,0 km/h (0 Bft)
21.07.2012 20:10 11,3 C 94 % 0,0 l/m 0,3 km/h (0 Bft) N 360 10,4 C 11,5 C 2,1 km/h (1 Bft)
21.07.2012 20:15 11,3 C 94 % 0,0 l/m 0,3 km/h (0 Bft) W-SW 247 10,4 C 11,4 C 0,0 km/h (0 Bft)
21.07.2012 20:20 11,3 C 94 % 0,7 l/m 0,8 km/h (0 Bft) S-SO 157 10,6 C 11,4 C 2,4 km/h (1 Bft)
21.07.2012 20:25 11,3 C 94 % 0,0 l/m 2,4 km/h (1 Bft) S 180 10,4 C 11,3 C 6,8 km/h (2 Bft)
21.07.2012 20:30 11,0 C 94 % 0,7 l/m 2,6 km/h (1 Bft) W-NW 292 10,1 C 11,1 C 1,6 km/h (1 Bft)
21.07.2012 20:35 10,7 C 94 % 2,1 l/m 1,9 km/h (1 Bft) NO 45 9,8 C 10,8 C 2,6 km/h (1 Bft)
21.07.2012 20:40 10,3 C 94 % 0,7 l/m 1,4 km/h (1 Bft) N-NO 22 9,4 C 10,6 C 0,0 km/h (0 Bft)
21.07.2012 20:45 10,2 C 94 % 0,0 l/m 0,8 km/h (0 Bft) NO 45 9,3 C 10,2 C 0,0 km/h (0 Bft)
21.07.2012 20:50 10,3 C 94 % 0,0 l/m 0,2 km/h (0 Bft) N-NO 22 9,4 C 10,2 C 0,0 km/h (0 Bft)
21.07.2012 20:55 10,4 C 94 % 0,0 l/m 0,2 km/h (0 Bft) N-NO 22 9,5 C 10,2 C 1,8 km/h (1 Bft)
21.07.2012 21:00 10,4 C 94 % 0,0 l/m 0,2 km/h (0 Bft) N-NO 22 9,5 C 10,2 C 1,9 km/h (1 Bft)
21.07.2012 21:05 10,5 C 95 % 0,7 l/m 0,3 km/h (0 Bft) N-NO 22 9,7 C 10,4 C 0,0 km/h (0 Bft)
21.07.2012 21:10 10,5 C 95 % 0,0 l/m 0,3 km/h (0 Bft) O-SO 112 9,7 C 10,4 C 0,0 km/h (0 Bft)
21.07.2012 21:15 10,5 C 95 % 0,0 l/m 0,0 km/h (0 Bft) NO 45 9,7 C 10,4 C 0,0 km/h (0 Bft)
21.07.2012 21:20 10,5 C 95 % 0,0 l/m 0,2 km/h (0 Bft) N-NO 22 9,7 C 10,4 C 0,0 km/h (0 Bft)
21.07.2012 21:25 10,5 C 95 % 0,0 l/m 0,2 km/h (0 Bft) O-NO 67 9,7 C 10,4 C 1,9 km/h (1 Bft)
21.07.2012 21:30 10,4 C 95 % 0,0 l/m 0,2 km/h (0 Bft) N 360 9,6 C 10,4 C 0,0 km/h (0 Bft)
21.07.2012 21:35 10,5 C 95 % 0,0 l/m 0,2 km/h (0 Bft) N-NO 22 9,7 C 10,4 C 0,0 km/h (0 Bft)
21.07.2012 21:40 10,4 C 95 % 0,0 l/m 0,2 km/h (0 Bft) N-NO 22 9,6 C 10,4 C 1,9 km/h (1 Bft)
21.07.2012 21:45 10,4 C 95 % 0,7 l/m 0,3 km/h (0 Bft) N-NO 22 9,6 C 10,4 C 0,0 km/h (0 Bft)
21.07.2012 21:50 10,4 C 95 % 0,0 l/m 0,3 km/h (0 Bft) NO 45 9,6 C 10,3 C 0,0 km/h (0 Bft)
21.07.2012 21:55 10,4 C 95 % 0,0 l/m 0,2 km/h (0 Bft) S-SO 157 9,6 C 10,3 C 0,0 km/h (0 Bft)
21.07.2012 22:00 10,3 C 95 % 0,0 l/m 0,2 km/h (0 Bft) NO 45 9,5 C 10,2 C 0,0 km/h (0 Bft)
21.07.2012 22:05 10,2 C 95 % 0,0 l/m 0,6 km/h (0 Bft) SO 135 9,4 C 10,2 C 2,9 km/h (1 Bft)
21.07.2012 22:10 10,2 C 95 % 0,0 l/m 0,6 km/h (0 Bft) N 360 9,4 C 10,1 C 0,0 km/h (0 Bft)
21.07.2012 22:15 10,2 C 95 % 0,0 l/m 0,3 km/h (0 Bft) NO 45 9,4 C 10,0 C 0,0 km/h (0 Bft)
21.07.2012 22:20 10,1 C 95 % 0,0 l/m 0,0 km/h (0 Bft) N-NO 22 9,3 C 10,0 C 0,0 km/h (0 Bft)
21.07.2012 22:25 10,1 C 95 % 0,0 l/m 0,0 km/h (0 Bft) SO 135 9,3 C 10,0 C 0,0 km/h (0 Bft)
21.07.2012 22:30 10,1 C 95 % 0,0 l/m 0,0 km/h (0 Bft) NO 45 9,3 C 10,0 C 0,0 km/h (0 Bft)
21.07.2012 22:35 10,0 C 95 % 0,0 l/m 0,0 km/h (0 Bft) N-NO 22 9,2 C 9,9 C 0,0 km/h (0 Bft)
21.07.2012 22:40 10,0 C 95 % 0,0 l/m 0,0 km/h (0 Bft) S-SW 202 9,2 C 9,8 C 0,0 km/h (0 Bft)
21.07.2012 22:45 9,9 C 95 % 0,0 l/m 0,2 km/h (0 Bft) N-NW 337 9,1 C 9,8 C 0,0 km/h (0 Bft)
21.07.2012 22:50 9,9 C 95 % 0,0 l/m 0,2 km/h (0 Bft) N 360 9,1 C 9,7 C 0,0 km/h (0 Bft)
21.07.2012 22:55 9,8 C 95 % 0,0 l/m 0,0 km/h (0 Bft) S-SO 157 9,0 C 9,7 C 0,0 km/h (0 Bft)
21.07.2012 23:00 9,8 C 95 % 0,0 l/m 0,0 km/h (0 Bft) S 180 9,0 C 9,7 C 0,0 km/h (0 Bft)
21.07.2012 23:05 9,9 C 95 % 0,0 l/m 0,8 km/h (0 Bft) NO 45 9,1 C 9,7 C 0,0 km/h (0 Bft)
21.07.2012 23:10 9,8 C 95 % 0,0 l/m 0,8 km/h (0 Bft) NO 45 9,0 C 9,7 C 0,0 km/h (0 Bft)
21.07.2012 23:15 9,8 C 95 % 0,0 l/m 0,2 km/h (0 Bft) NO 45 9,0 C 9,6 C 0,0 km/h (0 Bft)
21.07.2012 23:20 9,8 C 95 % 0,0 l/m 0,2 km/h (0 Bft) N 360 9,0 C 9,6 C 2,3 km/h (1 Bft)
21.07.2012 23:25 9,7 C 95 % 0,0 l/m 0,2 km/h (0 Bft) N-NO 22 8,9 C 9,6 C 0,0 km/h (0 Bft)
21.07.2012 23:30 9,7 C 95 % 0,0 l/m 0,2 km/h (0 Bft) N-NO 22 8,9 C 9,5 C 0,0 km/h (0 Bft)
21.07.2012 23:35 9,7 C 95 % 0,7 l/m 0,0 km/h (0 Bft) N-NO 22 8,9 C 9,5 C 0,0 km/h (0 Bft)
21.07.2012 23:40 9,7 C 95 % 0,0 l/m 0,0 km/h (0 Bft) N-NO 22 8,9 C 9,5 C 0,0 km/h (0 Bft)
21.07.2012 23:45 9,8 C 95 % 0,0 l/m 0,2 km/h (0 Bft) N-NO 22 9,0 C 9,6 C 0,0 km/h (0 Bft)
21.07.2012 23:50 9,8 C 95 % 0,0 l/m 0,2 km/h (0 Bft) N-NO 22 9,0 C 9,6 C 0,0 km/h (0 Bft)
21.07.2012 23:55 9,8 C 95 % 0,0 l/m 0,0 km/h (0 Bft) S 180 9,0 C 9,5 C 0,0 km/h (0 Bft)
_ Min-Zeit 23:40 15:45 - 23:55 - - 23:40 23:55 23:55
Minimum _ 9,7 C 70 % - 0,0 km/h (0 Bft) - - 8,9 C 9,5 C 0,0 km/h (0 Bft)
_ Max-Zeit 15:30 08:00 20:35 16:45 - - 15:30 16:05 16:45
Maximum _ 19,1 C 96 % 2,1 l/m 7,1 km/h
S-SW (2 Bft)
- - 15,0 C 23,3 C 14,3 km/h
S-SW (3 Bft)
Durchschnitt _ 11,9 C 92 % #18,5 l/m 1,1 km/h (0 Bft) O-SO - 10,6 C 12,7 C 1,6 km/h (1 Bft)